Terminal Aerodrome Forecast
Issued by NWS Sioux Falls, SD

Home | Current Version | Previous Version | Graphics & Text | Print | Product List | Glossary On
Versions: 1 2 3 4 5 6 7 8 9 10 11 12 13
141
FTUS43 KFSD 230520
TAFFSD
TAF
KFSD 230520Z 2306/2406 31004KT P6SM FEW250
     FM231300 32012KT P6SM SCT150
     FM231500 31016G25KT P6SM SCT045
     FM240100 31010KT P6SM FEW200=

USA.gov is the U.S. government's official web portal to all federal, state and local government web resources and services.